Time;durP1;ratioP1;P1;durP2;ratioP2;P2;SDS_P1;SDS_P2;PMS_P1;PMS_P2;Temp;Humidity;BMP_temperature;BMP_pressure;BME280_temperature;BME280_humidity;BME280_pressure;Samples;Min_cycle;Max_cycle;Signal;HPM_P1;HPM_P2
2021/01/24 00:01:31;;;;;;;6.10;3.33;;;3.30;99.90;;;;;;4988493;28;20046;-78
2021/01/24 00:03:56;;;;;;;6.25;3.13;;;3.30;99.90;;;;;;4970451;28;20041;-77
2021/01/24 00:06:22;;;;;;;6.65;3.47;;;3.30;99.90;;;;;;4989601;28;20038;-77
2021/01/24 00:08:48;;;;;;;5.63;3.47;;;3.30;99.90;;;;;;4971809;28;20395;-77
2021/01/24 00:11:13;;;;;;;8.80;3.50;;;3.30;99.90;;;;;;4985416;28;20495;-78
2021/01/24 00:13:39;;;;;;;4.88;3.03;;;3.30;99.90;;;;;;4986369;28;20105;-77
2021/01/24 00:16:05;;;;;;;4.80;2.65;;;3.30;99.90;;;;;;4986754;28;20177;-76
2021/01/24 00:18:30;;;;;;;4.80;2.83;;;3.30;99.90;;;;;;4989497;28;20045;-77
2021/01/24 00:20:56;;;;;;;5.78;2.90;;;3.30;99.90;;;;;;4990249;28;20035;-77
2021/01/24 00:23:21;;;;;;;5.32;2.45;;;3.30;99.90;;;;;;4991976;28;20042;-77
2021/01/24 00:25:47;;;;;;;3.75;2.40;;;3.30;99.90;;;;;;4992430;28;20130;-77
2021/01/24 00:28:19;;;;;;;4.13;2.28;;;3.30;99.90;;;;;;4989888;28;20031;-77
2021/01/24 00:30:44;;;;;;;3.53;2.45;;;3.30;99.90;;;;;;4998083;28;20045;-77
2021/01/24 00:33:10;;;;;;;3.78;2.42;;;3.30;99.90;;;;;;4993360;28;20034;-76
2021/01/24 00:35:35;;;;;;;2.78;1.92;;;3.30;99.90;;;;;;4991466;28;20046;-77
2021/01/24 00:38:01;;;;;;;4.30;2.50;;;3.20;99.90;;;;;;4990238;28;20027;-77
2021/01/24 00:40:27;;;;;;;3.55;2.40;;;3.20;99.90;;;;;;4974022;28;20410;-78
2021/01/24 00:42:52;;;;;;;3.20;2.00;;;3.20;99.90;;;;;;4994778;28;20030;-77
2021/01/24 00:45:18;;;;;;;2.88;1.77;;;3.20;99.90;;;;;;4992847;28;20038;-77
2021/01/24 00:47:43;;;;;;;4.32;2.75;;;3.20;99.90;;;;;;4994543;28;20034;-77
2021/01/24 00:50:10;;;;;;;4.38;1.73;;;3.20;99.90;;;;;;4992694;28;20034;-77
2021/01/24 00:52:35;;;;;;;3.28;2.15;;;3.20;99.90;;;;;;4992609;28;20105;-77
2021/01/24 00:55:01;;;;;;;3.20;1.77;;;3.10;99.90;;;;;;4997630;28;20189;-77
2021/01/24 00:57:26;;;;;;;2.42;1.65;;;3.10;99.90;;;;;;4992251;28;20034;-77
2021/01/24 00:59:52;;;;;;;3.65;2.13;;;3.10;99.90;;;;;;4996218;28;20491;-77
2021/01/24 01:02:18;;;;;;;3.30;2.13;;;3.20;99.90;;;;;;4995378;28;20038;-77
2021/01/24 01:04:43;;;;;;;2.05;1.80;;;3.10;99.90;;;;;;4994815;28;20072;-77
2021/01/24 01:07:09;;;;;;;2.38;1.50;;;3.10;99.90;;;;;;4976719;28;20061;-78
2021/01/24 01:09:36;;;;;;;4.07;1.90;;;3.10;99.90;;;;;;4992370;28;20034;-78
2021/01/24 01:12:02;;;;;;;2.13;1.45;;;3.10;99.90;;;;;;4995480;28;20037;-77
2021/01/24 01:14:28;;;;;;;2.67;1.55;;;3.10;99.90;;;;;;4995478;28;20161;-78
2021/01/24 01:16:54;;;;;;;5.53;1.52;;;3.10;99.90;;;;;;4996821;28;20117;-77
2021/01/24 01:19:19;;;;;;;2.60;1.70;;;3.00;99.90;;;;;;4995749;28;20065;-78
2021/01/24 01:21:45;;;;;;;4.70;1.48;;;3.10;99.90;;;;;;4998889;28;20074;-78
2021/01/24 01:24:11;;;;;;;2.83;1.60;;;3.00;99.90;;;;;;4997258;28;20096;-77
2021/01/24 01:26:36;;;;;;;2.05;1.48;;;3.00;99.90;;;;;;4978959;28;20030;-78
2021/01/24 01:29:02;;;;;;;1.83;1.38;;;3.00;99.90;;;;;;4995671;28;20083;-78
2021/01/24 01:31:28;;;;;;;1.77;1.15;;;3.00;99.90;;;;;;4995353;28;20057;-77
2021/01/24 01:33:53;;;;;;;1.70;1.00;;;3.10;99.90;;;;;;4978719;28;20450;-77
2021/01/24 01:36:19;;;;;;;1.52;1.20;;;3.10;99.90;;;;;;4994783;28;20034;-78
2021/01/24 01:38:45;;;;;;;1.50;1.23;;;3.10;99.90;;;;;;4994690;28;20034;-78
2021/01/24 01:41:10;;;;;;;1.95;1.40;;;3.00;99.90;;;;;;4976627;28;20036;-79
2021/01/24 01:43:36;;;;;;;2.22;1.33;;;3.00;99.90;;;;;;4995853;28;20076;-78
2021/01/24 01:46:02;;;;;;;2.72;1.40;;;3.00;99.90;;;;;;4996480;28;20069;-79
2021/01/24 01:48:27;;;;;;;2.70;1.58;;;2.90;99.90;;;;;;5001262;28;20041;-79
2021/01/24 01:50:56;;;;;;;3.40;2.22;;;3.00;99.90;;;;;;4977108;28;20045;-79
2021/01/24 01:53:22;;;;;;;2.63;1.63;;;3.00;99.90;;;;;;4995967;28;20045;-79
2021/01/24 01:55:47;;;;;;;4.28;2.17;;;3.00;99.90;;;;;;4994414;28;20091;-78
2021/01/24 01:58:13;;;;;;;3.40;1.85;;;2.90;99.90;;;;;;4990105;28;20054;-78
2021/01/24 02:00:38;;;;;;;2.75;1.80;;;3.00;99.90;;;;;;4990202;28;20053;-78
2021/01/24 02:03:22;;;;;;;3.25;1.98;;;3.00;99.90;;;;;;4988899;28;20427;-78
2021/01/24 02:06:00;;;;;;;3.58;2.00;;;3.00;99.90;;;;;;4991843;28;20679;-78
2021/01/24 02:08:35;;;;;;;3.25;2.15;;;3.00;99.90;;;;;;4989625;28;20034;-78
2021/01/24 02:11:18;;;;;;;3.70;2.10;;;3.00;99.90;;;;;;4989297;28;20058;-78
2021/01/24 02:14:06;;;;;;;2.75;1.90;;;3.00;99.90;;;;;;4990951;28;20037;-78
2021/01/24 02:16:36;;;;;;;2.72;1.52;;;3.10;99.90;;;;;;4991124;28;20056;-78
2021/01/24 02:19:05;;;;;;;2.67;1.33;;;3.10;99.90;;;;;;4991072;28;20041;-78
2021/01/24 02:21:34;;;;;;;0.90;0.60;;;3.20;99.90;;;;;;4994540;28;20030;-76
2021/01/24 02:24:04;;;;;;;1.02;0.68;;;3.20;99.90;;;;;;4977308;28;20523;-76
2021/01/24 02:26:51;;;;;;;0.60;0.50;;;3.20;99.90;;;;;;4995249;28;20049;-76
2021/01/24 02:29:21;;;;;;;0.82;0.50;;;3.30;99.90;;;;;;4992097;28;20411;-77
2021/01/24 02:31:48;;;;;;;0.28;0.20;;;3.30;99.90;;;;;;4993775;28;20088;-78
2021/01/24 02:34:16;;;;;;;0.63;0.40;;;3.20;99.90;;;;;;4984561;28;20437;-76
2021/01/24 02:36:43;;;;;;;1.02;0.32;;;3.20;99.90;;;;;;4994116;28;20048;-76
2021/01/24 02:39:09;;;;;;;0.35;0.15;;;3.10;99.90;;;;;;4948663;28;20466;-76
2021/01/24 02:41:35;;;;;;;0.20;0.20;;;3.10;99.90;;;;;;4963765;28;20042;-76
2021/01/24 02:44:02;;;;;;;0.45;0.30;;;3.10;99.90;;;;;;4954184;28;20792;-76
2021/01/24 02:46:30;;;;;;;0.40;0.20;;;3.00;99.90;;;;;;4907158;28;20526;-77
2021/01/24 02:48:55;;;;;;;0.17;0.17;;;3.00;99.90;;;;;;4945474;28;20044;-77
2021/01/24 02:51:21;;;;;;;0.38;0.30;;;3.00;99.90;;;;;;4989230;28;20050;-77
2021/01/24 02:53:49;;;;;;;0.55;0.38;;;2.90;99.90;;;;;;4970237;28;20125;-78
2021/01/24 02:56:17;;;;;;;0.30;0.20;;;2.90;99.90;;;;;;4989649;28;20034;-77
2021/01/24 02:58:43;;;;;;;1.02;0.40;;;2.90;99.90;;;;;;4987911;28;20034;-77
2021/01/24 03:01:08;;;;;;;0.45;0.30;;;2.90;99.90;;;;;;4956754;28;20045;-77
2021/01/24 03:03:34;;;;;;;0.95;0.65;;;2.90;99.90;;;;;;4912149;28;20065;-77
2021/01/24 03:05:59;;;;;;;1.17;0.65;;;2.90;99.90;;;;;;4962071;28;20217;-77
2021/01/24 03:08:25;;;;;;;1.10;0.60;;;2.90;99.90;;;;;;4954860;28;20491;-77
2021/01/24 03:10:51;;;;;;;0.70;0.60;;;2.90;99.90;;;;;;4938968;28;20053;-77
2021/01/24 03:13:30;;;;;;;1.92;0.90;;;2.80;99.90;;;;;;4951464;28;20064;-78
2021/01/24 03:15:56;;;;;;;3.22;0.63;;;2.80;99.90;;;;;;4949759;28;20042;-76
2021/01/24 03:18:27;;;;;;;0.82;0.73;;;2.80;99.90;;;;;;4973755;28;20044;-77
2021/01/24 03:20:55;;;;;;;1.30;0.88;;;2.80;99.90;;;;;;4948235;28;20507;-77
2021/01/24 03:23:22;;;;;;;4.07;1.33;;;2.80;99.90;;;;;;4990380;28;20049;-77
2021/01/24 03:25:48;;;;;;;1.48;0.95;;;2.90;99.90;;;;;;4996731;28;20045;-77
2021/01/24 03:28:15;;;;;;;1.70;1.40;;;2.90;99.90;;;;;;4971301;28;20046;-77
2021/01/24 03:30:41;;;;;;;1.60;1.20;;;2.90;99.90;;;;;;4960145;28;20073;-77
2021/01/24 03:33:07;;;;;;;2.80;1.70;;;2.90;99.90;;;;;;4966798;28;20088;-77
2021/01/24 03:35:33;;;;;;;2.78;1.77;;;2.90;99.90;;;;;;4959203;28;20135;-77
2021/01/24 03:37:59;;;;;;;2.72;1.65;;;2.90;99.90;;;;;;4950185;28;20510;-77
2021/01/24 03:40:25;;;;;;;2.78;1.50;;;2.80;99.90;;;;;;4996644;28;20065;-77
2021/01/24 03:42:50;;;;;;;4.43;1.80;;;2.80;99.90;;;;;;4940599;28;20494;-77
2021/01/24 03:45:16;;;;;;;6.50;1.70;;;2.70;99.90;;;;;;4960938;28;20069;-76
2021/01/24 03:47:42;;;;;;;3.42;1.60;;;2.60;99.90;;;;;;4991378;28;20038;-77
2021/01/24 03:50:08;;;;;;;2.83;1.70;;;2.60;99.90;;;;;;4968849;28;20459;-77
2021/01/24 03:52:34;;;;;;;3.90;1.65;;;2.60;99.90;;;;;;4957489;28;20046;-76
2021/01/24 03:54:59;;;;;;;2.75;1.60;;;2.50;99.90;;;;;;4980377;28;20054;-77
2021/01/24 03:57:26;;;;;;;2.97;1.80;;;2.50;99.90;;;;;;5001735;28;20405;-77
2021/01/24 03:59:53;;;;;;;3.05;1.90;;;2.50;99.90;;;;;;4979949;28;20038;-77
2021/01/24 04:02:19;;;;;;;5.95;2.38;;;2.40;99.90;;;;;;4979341;28;20076;-76
2021/01/24 04:04:45;;;;;;;7.75;2.67;;;2.40;99.90;;;;;;4980971;28;20085;-76
2021/01/24 04:07:11;;;;;;;4.75;2.45;;;2.40;99.90;;;;;;4988588;28;20046;-77
2021/01/24 04:09:37;;;;;;;6.20;2.10;;;2.40;99.90;;;;;;4979164;28;20056;-77
2021/01/24 04:12:03;;;;;;;4.13;1.75;;;2.40;99.90;;;;;;4972419;28;20042;-76
2021/01/24 04:14:29;;;;;;;5.72;2.20;;;2.30;99.90;;;;;;4978857;28;20054;-76
2021/01/24 04:16:54;;;;;;;5.00;2.40;;;2.30;99.90;;;;;;4953714;28;20447;-77
2021/01/24 04:19:20;;;;;;;4.25;2.45;;;2.30;99.90;;;;;;5005127;28;20041;-77
2021/01/24 04:21:45;;;;;;;4.57;2.33;;;2.20;99.90;;;;;;4978678;28;20759;-78
2021/01/24 04:24:11;;;;;;;6.15;2.60;;;2.20;99.90;;;;;;4979258;28;20058;-77
2021/01/24 04:26:36;;;;;;;4.95;2.50;;;2.10;99.90;;;;;;5004789;28;20026;-77
2021/01/24 04:29:02;;;;;;;5.18;2.85;;;2.00;99.90;;;;;;4991160;28;20053;-78
2021/01/24 04:31:28;;;;;;;6.40;2.38;;;2.00;99.90;;;;;;4979256;28;20038;-77
2021/01/24 04:33:53;;;;;;;6.53;2.45;;;2.00;99.90;;;;;;4979453;28;20080;-77
2021/01/24 04:36:19;;;;;;;2.58;1.85;;;2.00;99.90;;;;;;4964816;28;20118;-77
2021/01/24 04:38:44;;;;;;;3.58;2.03;;;2.00;99.90;;;;;;4976815;28;20605;-77
2021/01/24 04:41:10;;;;;;;6.63;2.28;;;2.00;99.90;;;;;;4949617;28;20057;-77
2021/01/24 04:43:36;;;;;;;5.15;1.98;;;2.00;99.90;;;;;;4997753;28;20733;-77
2021/01/24 04:46:02;;;;;;;2.90;1.88;;;2.00;99.90;;;;;;4959430;28;20045;-78
2021/01/24 04:48:27;;;;;;;6.75;2.35;;;2.00;99.90;;;;;;4929383;28;20047;-77
2021/01/24 04:50:53;;;;;;;2.40;1.52;;;1.90;99.90;;;;;;4969474;28;20553;-77
2021/01/24 04:53:19;;;;;;;8.00;2.00;;;1.90;98.90;;;;;;4948982;28;20053;-78
2021/01/24 04:55:45;;;;;;;11.00;2.00;;;2.00;96.50;;;;;;4953148;28;20049;-78
2021/01/24 04:58:11;;;;;;;2.33;1.55;;;2.00;93.20;;;;;;4974634;28;20038;-77
2021/01/24 05:00:36;;;;;;;5.70;2.05;;;2.00;93.80;;;;;;4971241;28;20116;-77
2021/01/24 05:03:03;;;;;;;7.35;1.80;;;2.00;91.00;;;;;;5005639;28;20074;-77
2021/01/24 05:05:29;;;;;;;9.13;2.25;;;2.00;90.90;;;;;;4980460;28;20057;-77
2021/01/24 05:08:07;;;;;;;2.35;1.35;;;1.90;91.20;;;;;;4963780;28;20031;-78
2021/01/24 05:10:33;;;;;;;3.38;1.58;;;2.00;87.30;;;;;;4979420;28;20060;-77
2021/01/24 05:12:58;;;;;;;6.00;2.25;;;2.00;86.80;;;;;;4991636;28;20029;-77
2021/01/24 05:15:27;;;;;;;3.90;2.00;;;2.00;86.90;;;;;;4952933;28;20659;-77
2021/01/24 05:17:59;;;;;;;3.95;1.80;;;1.90;86.00;;;;;;5003059;28;20057;-78
2021/01/24 05:20:29;;;;;;;5.50;2.08;;;1.90;87.20;;;;;;4962670;28;20022;-77
2021/01/24 05:22:56;;;;;;;4.82;2.20;;;1.90;86.40;;;;;;4978542;28;20030;-78
2021/01/24 05:25:26;;;;;;;4.65;1.83;;;1.90;86.20;;;;;;5003387;28;20109;-78
2021/01/24 05:27:52;;;;;;;2.88;1.67;;;1.90;87.10;;;;;;4990111;28;20081;-77
2021/01/24 05:30:28;;;;;;;6.45;2.53;;;1.90;87.90;;;;;;4978063;28;20445;-78
2021/01/24 05:32:56;;;;;;;3.70;1.90;;;1.80;89.30;;;;;;4978588;28;20092;-77
2021/01/24 05:35:21;;;;;;;5.65;2.20;;;1.80;90.60;;;;;;4976131;28;20070;-77
2021/01/24 05:37:47;;;;;;;4.45;1.98;;;1.80;90.70;;;;;;4964072;28;20451;-77
2021/01/24 05:40:13;;;;;;;8.25;1.92;;;1.80;91.00;;;;;;4997082;28;20104;-77
2021/01/24 05:42:40;;;;;;;6.53;2.40;;;1.70;92.30;;;;;;4970763;28;20506;-77
2021/01/24 05:45:16;;;;;;;4.57;2.67;;;1.70;93.30;;;;;;4979166;28;20084;-78
2021/01/24 05:47:47;;;;;;;8.50;2.90;;;1.70;93.80;;;;;;4978346;28;20125;-77
2021/01/24 05:50:17;;;;;;;10.80;2.75;;;1.60;93.50;;;;;;4949475;28;20092;-77
2021/01/24 05:52:47;;;;;;;7.00;2.25;;;1.60;93.00;;;;;;4979869;28;20384;-77
2021/01/24 05:55:30;;;;;;;6.65;2.85;;;1.60;92.70;;;;;;4979381;28;20108;-77
2021/01/24 05:57:56;;;;;;;8.32;2.63;;;1.50;92.60;;;;;;4979936;28;20030;-77
2021/01/24 06:00:22;;;;;;;4.93;1.90;;;1.50;92.50;;;;;;4978042;28;20042;-77
2021/01/24 06:02:48;;;;;;;4.60;1.92;;;1.50;90.90;;;;;;5003761;28;20048;-77
2021/01/24 06:05:14;;;;;;;5.22;2.45;;;1.60;90.10;;;;;;4943256;28;20544;-77
2021/01/24 06:07:40;;;;;;;5.53;2.63;;;1.60;90.30;;;;;;4965915;28;20141;-77
2021/01/24 06:10:06;;;;;;;7.22;2.65;;;1.60;89.00;;;;;;4949616;28;20050;-78
2021/01/24 06:12:36;;;;;;;5.43;2.83;;;1.60;90.00;;;;;;4968952;28;20037;-77
2021/01/24 06:15:03;;;;;;;5.40;2.85;;;1.60;90.30;;;;;;4932336;28;20067;-77
2021/01/24 06:17:29;;;;;;;8.27;2.88;;;1.50;90.60;;;;;;4976742;28;20038;-77
2021/01/24 06:20:00;;;;;;;5.22;2.63;;;1.40;91.20;;;;;;4951187;28;20043;-78
2021/01/24 06:22:37;;;;;;;7.15;2.58;;;1.30;91.50;;;;;;5000315;28;20462;-77
2021/01/24 06:25:09;;;;;;;5.68;3.22;;;1.30;91.60;;;;;;4952278;28;20117;-78
2021/01/24 06:27:50;;;;;;;8.18;3.13;;;1.40;92.70;;;;;;4937100;28;20469;-78
2021/01/24 06:30:18;;;;;;;6.22;2.70;;;1.40;92.60;;;;;;4989065;28;20065;-77
2021/01/24 06:32:44;;;;;;;9.23;2.78;;;1.30;93.10;;;;;;4979553;28;20669;-77
2021/01/24 06:35:16;;;;;;;6.78;2.85;;;1.40;93.40;;;;;;4976069;28;20137;-77
2021/01/24 06:37:51;;;;;;;9.80;2.72;;;1.40;93.30;;;;;;4976068;28;20519;-77
2021/01/24 06:40:25;;;;;;;9.63;3.42;;;1.30;93.40;;;;;;5005967;28;20045;-77
2021/01/24 06:42:55;;;;;;;6.80;3.25;;;1.40;93.90;;;;;;4987745;28;20027;-77
2021/01/24 06:45:24;;;;;;;6.35;2.80;;;1.40;93.50;;;;;;4981143;28;20065;-77
2021/01/24 06:47:50;;;;;;;5.80;2.65;;;1.40;93.90;;;;;;5001696;28;20022;-77
2021/01/24 06:50:47;;;;;;;4.45;2.78;;;1.30;93.30;;;;;;4977028;28;20383;-78
2021/01/24 06:53:23;;;;;;;5.15;2.58;;;1.30;92.80;;;;;;4980371;28;20060;-77
2021/01/24 06:56:06;;;;;;;9.10;3.00;;;1.40;92.70;;;;;;5001591;28;20038;-77
2021/01/24 06:58:34;;;;;;;3.83;2.30;;;1.40;92.00;;;;;;4974352;28;22419;-77
2021/01/24 07:03:27;;;;;;;7.32;2.10;;;1.40;91.50;;;;;;5045504;22;20061;-77
2021/01/24 07:06:13;;;;;;;3.53;2.03;;;1.40;91.20;;;;;;5008009;28;20102;-77
2021/01/24 07:08:38;;;;;;;6.22;1.80;;;1.60;88.80;;;;;;5040778;28;20063;-77
2021/01/24 07:11:04;;;;;;;5.93;2.50;;;1.50;88.60;;;;;;5026691;28;20565;-77
2021/01/24 07:13:31;;;;;;;6.70;2.40;;;1.50;88.70;;;;;;5022216;28;20035;-77
2021/01/24 07:15:57;;;;;;;11.43;2.78;;;1.50;87.80;;;;;;5005508;28;20043;-76
2021/01/24 07:18:23;;;;;;;4.68;2.22;;;1.60;87.20;;;;;;5003961;28;20060;-76
2021/01/24 07:20:51;;;;;;;4.43;2.40;;;1.60;87.20;;;;;;5009245;28;20521;-77
2021/01/24 07:23:18;;;;;;;8.23;2.80;;;1.50;88.00;;;;;;4979108;28;20072;-77
2021/01/24 07:25:45;;;;;;;6.57;2.22;;;1.50;88.90;;;;;;5017900;28;20036;-77
2021/01/24 07:28:12;;;;;;;7.47;2.75;;;1.50;89.50;;;;;;5007411;28;20027;-77
2021/01/24 07:30:40;;;;;;;4.93;2.67;;;1.40;90.60;;;;;;5004552;28;20021;-76
2021/01/24 07:33:07;;;;;;;6.63;2.80;;;1.40;90.80;;;;;;4990332;28;20038;-77
2021/01/24 07:35:37;;;;;;;8.45;1.98;;;1.40;90.80;;;;;;5013678;28;20153;-76
2021/01/24 07:38:03;;;;;;;8.32;2.80;;;1.40;90.90;;;;;;4996635;28;20072;-76
2021/01/24 07:40:29;;;;;;;6.85;2.25;;;1.40;91.00;;;;;;5021099;28;20045;-77
2021/01/24 07:42:55;;;;;;;7.85;3.13;;;1.40;91.30;;;;;;4995958;28;20030;-77
2021/01/24 07:45:21;;;;;;;3.33;2.17;;;1.40;91.50;;;;;;5010171;28;20379;-76
2021/01/24 07:47:47;;;;;;;2.92;2.05;;;1.40;90.70;;;;;;5008784;28;20029;-77
2021/01/24 07:50:13;;;;;;;8.85;1.88;;;1.50;90.20;;;;;;5021806;28;20049;-76
2021/01/24 07:52:39;;;;;;;11.60;2.33;;;1.50;90.10;;;;;;5022440;28;20052;-77
2021/01/24 07:55:06;;;;;;;4.70;2.38;;;1.50;89.00;;;;;;4998525;28;20502;-77
2021/01/24 07:57:31;;;;;;;5.18;2.22;;;1.50;90.00;;;;;;5011519;28;20315;-77
2021/01/24 07:59:57;;;;;;;6.85;2.30;;;1.60;87.90;;;;;;5035494;28;20032;-77
2021/01/24 08:02:25;;;;;;;5.00;1.85;;;1.60;88.50;;;;;;5001006;28;20398;-77
2021/01/24 08:04:51;;;;;;;3.78;2.13;;;1.70;85.90;;;;;;5021040;28;20026;-76
2021/01/24 08:07:17;;;;;;;6.07;2.63;;;1.70;86.00;;;;;;5021846;28;20030;-76
2021/01/24 08:09:43;;;;;;;8.70;2.28;;;1.70;85.00;;;;;;4998706;28;20498;-76
2021/01/24 08:12:12;;;;;;;5.53;2.20;;;1.70;85.50;;;;;;5012147;28;20044;-76
2021/01/24 08:14:41;;;;;;;6.82;1.75;;;1.80;85.50;;;;;;4996351;28;20029;-76
2021/01/24 08:17:11;;;;;;;5.60;1.63;;;1.80;83.30;;;;;;5022674;28;20441;-76
2021/01/24 08:19:37;;;;;;;3.92;2.08;;;1.90;81.80;;;;;;5026268;28;20063;-77
2021/01/24 08:22:03;;;;;;;3.05;1.85;;;1.90;81.40;;;;;;5019104;28;20071;-77
2021/01/24 08:24:29;;;;;;;4.20;2.33;;;1.90;82.50;;;;;;4992239;28;20049;-76
2021/01/24 08:26:55;;;;;;;4.75;1.50;;;2.00;82.60;;;;;;5023393;28;20658;-78
2021/01/24 08:29:21;;;;;;;5.22;1.65;;;2.00;82.50;;;;;;5028801;28;20034;-78
2021/01/24 08:31:48;;;;;;;7.55;1.92;;;2.00;82.20;;;;;;4996863;28;20049;-78
2021/01/24 08:34:16;;;;;;;4.05;2.08;;;2.00;82.70;;;;;;5010881;28;20037;-77
2021/01/24 08:36:42;;;;;;;3.78;1.65;;;2.10;82.50;;;;;;5010917;28;20049;-78
2021/01/24 08:39:07;;;;;;;7.18;2.17;;;2.10;82.90;;;;;;5013668;28;20497;-77
2021/01/24 08:41:38;;;;;;;2.65;1.73;;;2.10;83.50;;;;;;5014734;28;20037;-77
2021/01/24 08:44:16;;;;;;;4.95;1.90;;;2.10;82.20;;;;;;5013644;28;20095;-77
2021/01/24 08:46:43;;;;;;;4.95;1.80;;;2.20;83.00;;;;;;5012460;28;20049;-78
2021/01/24 08:49:11;;;;;;;3.25;1.80;;;2.30;82.20;;;;;;5011193;28;20069;-78
2021/01/24 08:51:51;;;;;;;5.43;2.00;;;2.50;81.00;;;;;;5011099;28;20054;-78
2021/01/24 08:54:20;;;;;;;5.05;2.00;;;2.70;80.30;;;;;;5010192;28;20501;-78
2021/01/24 08:56:46;;;;;;;4.60;1.65;;;2.80;79.30;;;;;;5014614;28;20053;-78
2021/01/24 08:59:22;;;;;;;4.80;1.80;;;2.80;80.40;;;;;;5014321;28;20680;-78
2021/01/24 09:01:50;;;;;;;5.03;2.28;;;2.80;79.10;;;;;;5012858;28;20086;-78
2021/01/24 09:04:23;;;;;;;4.25;1.88;;;2.80;79.30;;;;;;5011301;28;20116;-78
2021/01/24 09:07:09;;;;;;;4.27;2.10;;;2.70;78.70;;;;;;4997506;28;20132;-79
2021/01/24 09:09:41;;;;;;;2.95;1.42;;;2.70;78.40;;;;;;5012905;28;20048;-78
2021/01/24 09:12:10;;;;;;;3.50;1.90;;;2.70;79.20;;;;;;5013853;28;20068;-79
2021/01/24 09:14:36;;;;;;;2.83;1.65;;;2.60;80.20;;;;;;5012336;28;21015;-79
2021/01/24 09:17:10;;;;;;;4.90;1.77;;;2.60;80.60;;;;;;5011801;28;20068;-79
2021/01/24 09:19:37;;;;;;;3.60;2.13;;;2.60;80.80;;;;;;5009708;28;20046;-77
2021/01/24 09:22:05;;;;;;;6.60;1.52;;;2.60;85.00;;;;;;5010036;28;20041;-76
2021/01/24 09:24:31;;;;;;;4.80;2.05;;;2.60;84.40;;;;;;5008316;28;20057;-76
2021/01/24 09:26:56;;;;;;;6.07;2.38;;;2.60;85.30;;;;;;5012843;28;20444;-80
2021/01/24 09:29:22;;;;;;;3.85;1.77;;;2.70;86.80;;;;;;5016806;28;20041;-77
2021/01/24 09:31:48;;;;;;;7.18;1.95;;;2.60;88.40;;;;;;5015955;28;20048;-81
2021/01/24 09:34:14;;;;;;;5.78;2.30;;;2.50;91.20;;;;;;5011761;28;20034;-77
2021/01/24 09:36:39;;;;;;;6.32;2.05;;;2.40;92.80;;;;;;5016548;28;20063;-77
2021/01/24 09:39:06;;;;;;;9.45;3.10;;;2.30;95.00;;;;;;5014424;28;20170;-77
2021/01/24 09:41:32;;;;;;;8.75;2.50;;;2.20;96.20;;;;;;5012544;28;20037;-76
2021/01/24 09:43:58;;;;;;;7.72;2.17;;;2.00;98.90;;;;;;5017091;28;20099;-77
2021/01/24 09:46:24;;;;;;;6.90;2.67;;;1.90;99.90;;;;;;5015272;28;20037;-78
2021/01/24 09:48:49;;;;;;;8.50;2.40;;;2.00;99.90;;;;;;5016298;28;20729;-77
2021/01/24 09:51:15;;;;;;;4.93;2.40;;;2.00;99.90;;;;;;5006284;28;20072;-77
2021/01/24 09:53:40;;;;;;;8.32;2.15;;;2.10;99.90;;;;;;5014376;28;20034;-77
2021/01/24 09:56:07;;;;;;;12.27;2.28;;;2.10;99.90;;;;;;5016344;28;20040;-76
2021/01/24 09:58:33;;;;;;;6.22;2.25;;;2.10;99.90;;;;;;5013152;28;20029;-76
2021/01/24 10:00:59;;;;;;;7.57;2.50;;;2.30;99.90;;;;;;5016059;28;20034;-76
2021/01/24 10:03:24;;;;;;;4.63;2.45;;;2.30;99.90;;;;;;5012464;28;20037;-77
2021/01/24 10:05:51;;;;;;;6.18;2.38;;;2.40;99.90;;;;;;5012028;28;20048;-78
2021/01/24 10:08:16;;;;;;;4.18;2.67;;;2.40;99.90;;;;;;5014086;28;20051;-76
2021/01/24 10:10:45;;;;;;;6.45;2.50;;;2.40;99.90;;;;;;5013385;28;20552;-76
2021/01/24 10:13:11;;;;;;;6.03;2.47;;;2.70;99.90;;;;;;5012935;28;20125;-78
2021/01/24 10:15:37;;;;;;;4.45;2.17;;;2.70;99.90;;;;;;5017165;28;20034;-77
2021/01/24 10:18:02;;;;;;;7.13;2.25;;;2.70;99.90;;;;;;5015033;28;20032;-77
2021/01/24 10:20:28;;;;;;;4.57;2.30;;;2.80;99.90;;;;;;5013396;28;20095;-76
2021/01/24 10:22:54;;;;;;;5.00;2.22;;;2.80;99.90;;;;;;5016026;28;20037;-77
2021/01/24 10:25:19;;;;;;;3.90;2.17;;;2.80;99.70;;;;;;5014986;28;20053;-77
2021/01/24 10:27:45;;;;;;;4.28;2.10;;;2.80;99.40;;;;;;5014204;28;20053;-76
2021/01/24 10:30:11;;;;;;;5.90;2.22;;;2.90;99.00;;;;;;5014065;28;20433;-77
2021/01/24 10:32:40;;;;;;;5.65;2.28;;;2.80;97.70;;;;;;5012755;28;20042;-76
2021/01/24 10:35:07;;;;;;;7.47;1.75;;;2.90;95.90;;;;;;5017319;28;20048;-76
2021/01/24 10:37:32;;;;;;;4.93;1.95;;;2.90;93.30;;;;;;5012936;28;20565;-78
2021/01/24 10:39:58;;;;;;;5.40;1.92;;;3.00;93.80;;;;;;5014039;28;20056;-77
2021/01/24 10:42:24;;;;;;;6.93;2.13;;;3.00;91.60;;;;;;5016585;28;20034;-76
2021/01/24 10:44:49;;;;;;;4.63;1.75;;;3.10;90.60;;;;;;5014896;28;20056;-76
2021/01/24 10:47:15;;;;;;;2.67;1.70;;;3.20;89.10;;;;;;5012297;28;20511;-76
2021/01/24 10:49:40;;;;;;;4.93;1.60;;;3.30;83.90;;;;;;5015298;28;20071;-76
2021/01/24 10:52:09;;;;;;;2.95;1.38;;;3.20;79.60;;;;;;5016356;28;20044;-75
2021/01/24 10:54:35;;;;;;;12.07;2.10;;;3.20;79.00;;;;;;5013033;28;20168;-79
2021/01/24 10:57:01;;;;;;;4.15;1.55;;;3.40;78.10;;;;;;5012941;28;20064;-75
2021/01/24 10:59:27;;;;;;;5.78;1.60;;;3.50;77.10;;;;;;5010168;28;20851;-75
2021/01/24 11:01:52;;;;;;;2.60;1.42;;;3.60;77.70;;;;;;5010801;28;20038;-77
2021/01/24 11:04:18;;;;;;;2.53;1.15;;;3.60;75.40;;;;;;5011833;28;20038;-76
2021/01/24 11:06:44;;;;;;;3.40;1.88;;;3.60;71.80;;;;;;5015071;28;20037;-77
2021/01/24 11:09:09;;;;;;;4.85;1.38;;;3.70;73.70;;;;;;5024169;28;20063;-77
2021/01/24 11:11:35;;;;;;;2.42;1.30;;;3.90;72.80;;;;;;5028573;28;20042;-78
2021/01/24 11:14:00;;;;;;;10.73;1.33;;;3.80;70.00;;;;;;5022117;28;20457;-78
2021/01/24 11:16:26;;;;;;;3.25;1.42;;;4.10;70.90;;;;;;5013246;28;20584;-77
2021/01/24 11:18:51;;;;;;;2.92;1.42;;;4.10;67.80;;;;;;5008470;28;20041;-78
2021/01/24 11:21:17;;;;;;;2.97;1.23;;;4.30;70.00;;;;;;5007657;28;20033;-76
2021/01/24 11:23:42;;;;;;;3.75;1.30;;;4.30;67.60;;;;;;5007705;28;20494;-77
2021/01/24 11:26:08;;;;;;;7.00;1.45;;;4.30;68.30;;;;;;5008140;28;20549;-78
2021/01/24 11:28:34;;;;;;;4.10;1.20;;;4.50;69.10;;;;;;5010855;28;20028;-78
2021/01/24 11:30:59;;;;;;;3.70;1.15;;;4.50;66.60;;;;;;5009395;28;20132;-78
2021/01/24 11:33:25;;;;;;;3.45;1.27;;;4.30;64.70;;;;;;5010886;28;20048;-78
2021/01/24 11:35:50;;;;;;;3.47;0.93;;;4.60;66.30;;;;;;5006664;28;20112;-79
2021/01/24 11:38:16;;;;;;;2.10;1.00;;;4.70;66.40;;;;;;5009457;28;20096;-76
2021/01/24 11:40:42;;;;;;;4.22;1.35;;;4.80;66.00;;;;;;5009675;28;20202;-77
2021/01/24 11:43:07;;;;;;;2.45;1.20;;;4.90;66.00;;;;;;5006947;28;20069;-77
2021/01/24 11:45:33;;;;;;;4.10;1.10;;;5.00;65.40;;;;;;5006686;28;20049;-77
2021/01/24 11:47:59;;;;;;;3.20;1.20;;;5.00;64.40;;;;;;5006154;28;20045;-77
2021/01/24 11:50:25;;;;;;;2.78;1.42;;;4.70;62.60;;;;;;5010501;28;20105;-77
2021/01/24 11:52:51;;;;;;;4.22;1.55;;;4.80;63.20;;;;;;5006891;28;20154;-76
2021/01/24 11:55:17;;;;;;;5.82;1.50;;;4.90;63.90;;;;;;5007537;28;20053;-77
2021/01/24 11:57:42;;;;;;;2.03;1.15;;;4.60;63.10;;;;;;5007894;28;20463;-77
2021/01/24 12:00:08;;;;;;;3.40;1.35;;;4.80;63.80;;;;;;5014732;28;20084;-78
2021/01/24 12:02:34;;;;;;;5.10;1.35;;;4.80;64.00;;;;;;5004510;28;20572;-78
2021/01/24 12:04:59;;;;;;;4.05;1.50;;;4.80;63.30;;;;;;5005159;28;20073;-77
2021/01/24 12:07:25;;;;;;;4.82;1.10;;;4.50;62.50;;;;;;5005708;28;20037;-78
2021/01/24 12:09:53;;;;;;;4.53;1.45;;;4.40;63.80;;;;;;5005549;28;20047;-76
2021/01/24 12:12:18;;;;;;;3.63;1.58;;;4.60;64.30;;;;;;5010772;28;20124;-78
2021/01/24 12:14:44;;;;;;;3.25;1.27;;;4.50;62.80;;;;;;5008963;28;20094;-77
2021/01/24 12:17:10;;;;;;;7.25;1.60;;;4.30;63.50;;;;;;5011017;28;20029;-77
2021/01/24 12:19:36;;;;;;;2.58;1.17;;;4.60;65.50;;;;;;5009612;28;20685;-77
2021/01/24 12:22:01;;;;;;;5.50;1.70;;;4.50;63.90;;;;;;5007928;28;20037;-79
2021/01/24 12:24:27;;;;;;;9.80;1.70;;;4.20;63.50;;;;;;5003730;28;20042;-78
2021/01/24 12:26:52;;;;;;;3.50;1.05;;;4.30;64.70;;;;;;5015528;28;20105;-76
2021/01/24 12:29:18;;;;;;;3.72;1.63;;;4.10;65.70;;;;;;4993955;28;20037;-76
2021/01/24 12:31:44;;;;;;;2.30;1.05;;;4.00;63.90;;;;;;5008638;28;20407;-80
2021/01/24 12:34:10;;;;;;;3.38;1.13;;;3.90;64.20;;;;;;5010969;28;20036;-77
2021/01/24 12:36:36;;;;;;;3.83;1.17;;;3.80;65.70;;;;;;5009520;28;20038;-78
2021/01/24 12:39:02;;;;;;;6.25;1.40;;;4.00;66.10;;;;;;5009938;28;20040;-78
2021/01/24 12:41:28;;;;;;;3.95;1.50;;;4.00;66.10;;;;;;5011632;28;20037;-78
2021/01/24 12:43:53;;;;;;;3.20;1.42;;;4.00;65.70;;;;;;5015313;28;20056;-78
2021/01/24 12:46:19;;;;;;;3.97;1.38;;;4.00;65.80;;;;;;5011401;28;20046;-80
2021/01/24 12:48:44;;;;;;;4.82;1.65;;;4.00;66.80;;;;;;5010431;28;20045;-77
2021/01/24 12:51:10;;;;;;;2.00;1.13;;;4.00;66.20;;;;;;5011946;28;20371;-78
2021/01/24 12:53:36;;;;;;;6.07;1.90;;;3.90;66.20;;;;;;5011873;28;20427;-76
2021/01/24 12:56:01;;;;;;;2.25;1.10;;;3.90;66.10;;;;;;5011533;28;20489;-77
2021/01/24 12:58:29;;;;;;;5.88;1.30;;;3.80;65.50;;;;;;5015421;28;20040;-77
2021/01/24 13:00:54;;;;;;;3.70;1.77;;;3.90;65.60;;;;;;5009849;28;20160;-77